Time;durP1;ratioP1;P1;durP2;ratioP2;P2;SDS_P1;SDS_P2;PMS_P1;PMS_P2;Temp;Humidity;BMP_temperature;BMP_pressure;BME280_temperature;BME280_humidity;BME280_pressure;Samples;Min_cycle;Max_cycle;Signal;HPM_P1;HPM_P2
2022/04/12 00:16:04;;;;;;;;;;;;;;;;;;;;;
2022/04/12 00:43:01;;;;;;;;;;;;;;;;;;;;;
2022/04/12 00:57:54;;;;;;;6.93;1.60;;;;;;;13.42;nan;100629.63;4737714;30;20429;-89
2022/04/12 01:20:29;;;;;;;;;;;;;;;;;;;;;
2022/04/12 01:23:23;;;;;;;11.90;2.50;;;;;;;13.55;nan;100628.75;4731032;30;20491;-89
2022/04/12 01:26:13;;;;;;;13.80;2.10;;;;;;;13.40;nan;100615.28;4753377;30;20595;-89
2022/04/12 01:49:31;;;;;;;10.57;2.40;;;;;;;13.20;100.00;100603.50;4840782;29;20452;-90
2022/04/12 01:52:27;;;;;;;11.43;2.90;;;;;;;13.11;100.00;100592.72;4838927;29;20536;-90
2022/04/12 02:21:22;;;;;;;12.33;1.90;;;;;;;12.91;100.00;100594.63;5096127;28;20471;-89
2022/04/12 02:29:09;;;;;;;;;;;;;;;;;;;;;
2022/04/12 02:36:55;;;;;;;8.47;3.10;;;;;;;12.66;100.00;100588.13;4893199;29;20457;-90
2022/04/12 02:41:08;;;;;;;9.80;2.80;;;;;;;12.43;100.00;100577.59;4014902;27;30065901;-90
2022/04/12 02:48:41;;;;;;;8.47;2.60;;;;;;;12.42;100.00;100581.38;5011820;28;20422;-89
2022/04/12 02:51:55;;;;;;;17.43;4.00;;;;;;;12.32;100.00;100590.00;4912431;29;20439;-90
2022/04/12 03:02:57;;;;;;;21.50;5.67;;;;;;;12.23;100.00;100599.50;5009397;28;20508;-90
2022/04/12 03:06:12;;;;;;;26.97;5.57;;;;;;;12.12;100.00;100577.34;4981904;28;20441;-90
2022/04/12 03:09:03;;;;;;;13.27;4.40;;;;;;;12.21;100.00;100590.63;4948023;28;20557;-90
2022/04/12 03:12:10;;;;;;;11.50;2.73;;;;;;;12.21;100.00;100587.88;4970148;28;20435;-90
2022/04/12 03:15:27;;;;;;;10.67;2.10;;;;;;;12.24;100.00;100592.97;4967090;28;20452;-91
2022/04/12 03:19:05;;;;;;;5.03;1.73;;;;;;;12.05;100.00;100566.38;4994564;28;20539;-91
2022/04/12 03:26:32;;;;;;;;;;;;;;;;;;;;;
2022/04/12 03:34:21;;;;;;;;;;;;;;;;;;;;;
2022/04/12 03:38:01;;;;;;;;;;;;;;;;;;;;;
2022/04/12 03:41:14;;;;;;;14.70;6.07;;;;;;;11.92;100.00;100580.88;4779179;29;20564;-91
2022/04/12 03:44:05;;;;;;;14.40;3.67;;;;;;;11.84;100.00;100574.75;4770517;30;20513;-91
2022/04/12 03:46:54;;;;;;;9.73;3.17;;;;;;;11.83;100.00;100573.91;4771024;30;20439;-91
2022/04/12 04:12:38;;;;;;;8.83;2.27;;;;;;;11.97;100.00;100597.53;4917594;29;20452;-90
2022/04/12 04:15:21;;;;;;;6.07;1.97;;;;;;;11.99;100.00;100600.06;4872901;29;20441;-91
2022/04/12 04:18:12;;;;;;;7.30;2.93;;;;;;;11.86;100.00;100578.97;4882952;29;20455;-91
2022/04/12 04:22:02;;;;;;;6.63;2.00;;;;;;;11.98;100.00;100595.63;4888840;29;20451;-90
2022/04/12 04:33:17;;;;;;;;;;;;;;;;;;;;;
2022/04/12 04:36:46;;;;;;;4.93;1.90;;;;;;;11.96;100.00;100597.72;4771183;29;20439;-91
2022/04/12 04:44:27;;;;;;;;;;;;;;;;;;;;;
2022/04/12 04:59:33;;;;;;;;;;;;;;;;;;;;;
2022/04/12 05:07:06;;;;;;;6.03;2.27;;;;;;;11.92;100.00;100601.97;4801569;29;20883;-90
2022/04/12 05:29:37;;;;;;;6.80;1.80;;;;;;;11.74;100.00;100603.31;4797237;29;20432;-90
2022/04/12 05:44:37;;;;;;;;;;;;;;;;;;;;;
2022/04/12 05:55:42;;;;;;;9.33;2.37;;;;;;;11.63;100.00;100606.66;4807106;29;20449;-90
2022/04/12 05:59:24;;;;;;;;;;;;;;;;;;;;;
2022/04/12 06:02:38;;;;;;;7.90;2.13;;;;;;;11.77;100.00;100652.22;5109840;28;20210;-90
2022/04/12 06:17:04;;;;;;;13.37;2.37;;;;;;;11.63;100.00;100650.44;5004163;28;20970;-90
2022/04/12 06:19:48;;;;;;;8.00;2.00;;;;;;;11.59;100.00;100651.91;5014375;28;20443;-90
2022/04/12 06:22:38;;;;;;;11.00;3.00;;;;;;;11.67;100.00;100656.38;5018901;28;20429;-91
2022/04/12 06:28:57;;;;;;;6.90;2.40;;;;;;;11.65;100.00;100663.94;5029162;28;20550;-90
2022/04/12 06:31:32;;;;;;;9.20;2.33;;;;;;;11.67;100.00;100662.69;5012339;28;20526;-90
2022/04/12 06:34:02;;;;;;;10.40;2.47;;;;;;;11.74;100.00;100685.44;4980793;28;20941;-89
2022/04/12 06:36:43;;;;;;;8.73;2.40;;;;;;;11.86;100.00;100687.66;4982428;28;20494;-91
2022/04/12 06:39:17;;;;;;;8.83;2.13;;;;;;;11.87;100.00;100675.66;5028757;28;20443;-91
2022/04/12 06:41:54;;;;;;;6.97;1.83;;;;;;;11.98;100.00;100680.53;5011277;28;20784;-90
2022/04/12 06:44:41;;;;;;;11.47;2.63;;;;;;;12.14;100.00;100682.06;4978646;28;20463;-91
2022/04/12 07:26:09;;;;;;;11.30;1.97;;;;;;;13.21;100.00;100747.91;4934279;29;20450;-95
2022/04/12 08:35:32;;;;;;;12.40;3.30;;;;;;;15.23;100.00;100748.38;5096200;28;20837;-87
2022/04/12 08:38:35;;;;;;;21.27;2.50;;;;;;;15.34;100.00;100753.16;5064772;28;20484;-91
2022/04/12 08:41:09;;;;;;;17.67;2.17;;;;;;;15.46;100.00;100754.09;5060309;28;20466;-92
2022/04/12 08:44:09;;;;;;;23.03;2.83;;;;;;;15.69;100.00;100765.38;5061342;28;20479;-92
2022/04/12 17:21:31;;;;;;;9.33;2.00;;;;;;;20.04;66.78;100877.66;5326587;23;20511;-87
2022/04/12 17:23:59;;;;;;;15.60;2.50;;;;;;;19.74;67.54;100867.75;4881765;29;20960;-89
2022/04/12 17:26:29;;;;;;;13.17;2.27;;;;;;;19.75;68.53;100894.41;4879677;29;20465;-87
2022/04/12 17:28:59;;;;;;;10.93;2.17;;;;;;;19.69;69.20;100889.84;4883150;29;20444;-90
2022/04/12 17:31:36;;;;;;;10.40;2.73;;;;;;;19.65;69.90;100886.75;4865471;29;20449;-91
2022/04/12 17:53:09;;;;;;;15.23;2.70;;;;;;;19.17;73.31;100916.84;4842286;29;20435;-91
2022/04/12 17:59:22;;;;;;;16.43;1.87;;;;;;;18.76;71.41;100904.06;4859889;29;20599;-91
2022/04/12 18:02:25;;;;;;;14.43;2.00;;;;;;;18.68;71.99;100930.19;4814635;29;20525;-93
2022/04/12 18:05:41;;;;;;;;;;;;;;;;;;;;;
2022/04/12 18:08:36;;;;;;;13.40;2.27;;;;;;;18.32;74.34;100931.25;4864477;29;20527;-91
2022/04/12 18:11:16;;;;;;;10.00;2.30;;;;;;;18.18;75.83;100930.66;4838866;29;20471;-92
2022/04/12 18:18:23;;;;;;;16.73;3.10;;;;;;;17.77;79.29;100950.91;4893557;29;20527;-92
2022/04/12 18:21:01;;;;;;;16.07;2.93;;;;;;;17.53;80.19;100944.44;4880209;29;20527;-92
2022/04/12 18:24:08;;;;;;;12.97;2.40;;;;;;;17.48;80.96;100954.53;4867026;29;20460;-91
2022/04/12 18:30:32;;;;;;;13.00;2.80;;;;;;;17.08;83.52;100956.97;4898685;29;20444;-91
2022/04/12 18:33:13;;;;;;;12.80;2.90;;;;;;;17.08;84.37;100962.50;4871903;29;20972;-90
2022/04/12 18:36:34;;;;;;;14.60;1.90;;;;;;;16.84;84.04;100944.94;4869794;29;20556;-90
2022/04/12 18:39:03;;;;;;;13.20;2.90;;;;;;;16.74;84.69;100962.00;4870473;29;20474;-91
2022/04/12 18:41:49;;;;;;;11.53;2.80;;;;;;;16.66;85.21;100958.72;4836189;29;21096;-91
2022/04/12 18:44:32;;;;;;;17.00;2.23;;;;;;;16.54;85.47;100955.84;4836373;29;20515;-91
2022/04/12 18:47:12;;;;;;;22.97;3.20;;;;;;;16.62;86.55;100982.28;4833573;29;20476;-91
2022/04/12 18:49:45;;;;;;;16.50;2.13;;;;;;;16.45;87.03;100977.34;4855519;29;20502;-91
2022/04/12 18:52:29;;;;;;;11.40;2.60;;;;;;;16.47;88.26;101008.34;4866543;29;20449;-90
2022/04/12 18:55:16;;;;;;;19.40;2.60;;;;;;;16.35;88.50;100996.34;4866263;29;20445;-91
2022/04/12 18:58:37;;;;;;;18.27;2.97;;;;;;;16.29;88.13;101001.91;4860986;29;20492;-91
2022/04/12 19:01:51;;;;;;;15.93;3.03;;;;;;;16.19;88.79;100986.72;4872177;29;20489;-91
2022/04/12 19:04:43;;;;;;;12.00;2.30;;;;;;;16.00;88.58;100970.31;4871290;29;20540;-92
2022/04/12 19:07:36;;;;;;;12.20;2.57;;;;;;;16.02;89.07;100985.56;4859046;29;20478;-91
2022/04/12 19:10:16;;;;;;;13.23;2.80;;;;;;;16.03;89.92;101002.97;4872720;29;20482;-91
2022/04/12 19:12:59;;;;;;;13.40;3.20;;;;;;;15.97;89.94;101006.63;4872660;29;20461;-91
2022/04/12 19:15:31;;;;;;;11.07;2.23;;;;;;;15.91;90.19;100999.25;4869936;29;20501;-90
2022/04/12 19:18:05;;;;;;;16.67;4.83;;;;;;;16.00;90.12;101015.28;4884758;29;20481;-91
2022/04/12 19:20:55;;;;;;;18.73;3.00;;;;;;;15.82;90.68;100991.22;4886889;29;20983;-90
2022/04/12 19:23:33;;;;;;;19.40;4.00;;;;;;;15.87;91.26;101007.94;4834481;29;20479;-90
2022/04/12 19:26:31;;;;;;;20.47;2.97;;;;;;;15.89;91.41;101014.09;4834729;29;20507;-91
2022/04/12 19:29:12;;;;;;;16.17;2.20;;;;;;;15.77;91.41;100998.50;4849725;29;20458;-90
2022/04/12 19:32:01;;;;;;;10.97;2.77;;;;;;;15.72;92.21;101003.81;4833513;29;20456;-90
2022/04/12 19:34:46;;;;;;;17.90;3.03;;;;;;;15.77;92.55;101015.03;4848841;29;20456;-90
2022/04/12 19:37:48;;;;;;;16.03;3.20;;;;;;;15.65;93.18;101000.25;4862743;29;20534;-90
2022/04/12 19:40:27;;;;;;;11.97;2.90;;;;;;;15.64;93.98;100998.56;4836101;29;20887;-91
2022/04/12 19:42:54;;;;;;;12.40;2.70;;;;;;;15.58;94.09;101000.31;4847441;29;20869;-90
2022/04/12 19:45:30;;;;;;;11.83;2.97;;;;;;;15.59;94.57;101018.50;4832212;29;20447;-90
2022/04/12 19:48:10;;;;;;;14.33;3.10;;;;;;;15.51;94.25;101010.47;4847455;29;20837;-90
2022/04/12 19:50:42;;;;;;;15.50;3.00;;;;;;;15.54;94.10;101029.31;4847347;29;20455;-90
2022/04/12 19:53:13;;;;;;;14.10;3.50;;;;;;;15.46;94.34;101013.03;4833874;29;20459;-90
2022/04/12 19:55:44;;;;;;;13.70;4.60;;;;;;;15.43;94.28;101018.97;4832947;29;20500;-90
2022/04/12 19:58:14;;;;;;;17.67;3.70;;;;;;;15.43;93.39;101030.00;4847086;29;20857;-90
2022/04/12 20:00:45;;;;;;;15.47;3.63;;;;;;;15.39;93.69;101048.03;4847904;29;20467;-90
2022/04/12 20:03:13;;;;;;;19.00;3.33;;;;;;;15.18;93.79;101019.75;4846781;29;20963;-90
2022/04/12 20:05:59;;;;;;;12.47;5.03;;;;;;;15.18;94.62;101039.00;4862383;29;20547;-90
2022/04/12 20:08:34;;;;;;;16.03;3.53;;;;;;;15.09;94.73;101048.56;4862086;29;20512;-90
2022/04/12 20:11:04;;;;;;;9.33;3.73;;;;;;;15.11;95.08;101065.69;4862069;29;20470;-90
2022/04/12 20:13:39;;;;;;;28.10;9.60;;;;;;;15.07;95.37;101069.09;4846997;29;20512;-90
2022/04/12 20:16:07;;;;;;;22.23;6.20;;;;;;;14.95;95.63;101051.56;4847172;29;20968;-90
2022/04/12 20:18:41;;;;;;;20.40;6.73;;;;;;;14.89;95.42;101050.50;4861700;29;20932;-91
2022/04/12 20:21:09;;;;;;;27.67;6.40;;;;;;;15.01;95.33;101081.00;4851846;29;20534;-90
2022/04/12 20:23:40;;;;;;;18.73;6.00;;;;;;;14.95;95.56;101084.59;4853630;29;20481;-90
2022/04/12 20:26:10;;;;;;;22.90;10.17;;;;;;;14.85;95.35;101076.75;4868444;29;20479;-90
2022/04/12 20:28:40;;;;;;;23.27;8.33;;;;;;;14.72;95.24;101061.13;4854230;29;20510;-90
2022/04/12 20:31:12;;;;;;;20.10;7.97;;;;;;;14.77;95.65;101090.75;4851430;29;20485;-90
2022/04/12 20:33:42;;;;;;;11.63;4.90;;;;;;;14.62;96.50;101079.13;4852883;29;20501;-88
2022/04/12 20:36:32;;;;;;;16.50;3.53;;;;;;;14.70;96.49;101095.41;4870429;29;20484;-90
2022/04/12 20:39:04;;;;;;;16.70;6.37;;;;;;;14.66;96.78;101110.63;4884612;29;20492;-87
2022/04/12 20:41:46;;;;;;;28.20;7.83;;;;;;;14.62;96.86;101120.38;4899326;29;20445;-86
2022/04/12 20:44:19;;;;;;;22.40;7.40;;;;;;;14.62;97.56;101128.66;4864031;29;20442;-86
2022/04/12 20:46:52;;;;;;;9.73;3.23;;;;;;;14.58;97.59;101125.47;4899566;29;20434;-88
2022/04/12 20:49:23;;;;;;;15.73;4.23;;;;;;;14.52;97.52;101118.88;4885057;29;20470;-86
2022/04/12 20:51:54;;;;;;;13.63;3.77;;;;;;;14.57;97.69;101133.94;4867619;29;21012;-86
2022/04/12 20:54:24;;;;;;;20.13;3.60;;;;;;;14.50;98.29;101128.41;4867491;29;20446;-86
2022/04/12 20:56:53;;;;;;;12.50;2.70;;;;;;;14.53;98.30;101136.25;4882893;29;20441;-86
2022/04/12 20:59:26;;;;;;;13.60;2.57;;;;;;;14.52;98.33;101138.16;4866966;29;21011;-87
2022/04/12 21:01:57;;;;;;;14.30;2.60;;;;;;;14.51;98.50;101139.19;4898771;29;20450;-87
2022/04/12 21:04:26;;;;;;;16.27;3.07;;;;;;;14.49;98.64;101132.22;4864282;29;20945;-86
2022/04/12 21:06:55;;;;;;;19.43;3.13;;;;;;;14.32;98.63;101118.00;4863323;29;20529;-87
2022/04/12 21:09:27;;;;;;;15.90;4.07;;;;;;;14.43;98.34;101133.88;4868926;29;20515;-86
2022/04/12 21:11:58;;;;;;;17.67;3.37;;;;;;;14.41;98.00;101147.03;4884567;29;20472;-86
2022/04/12 21:14:28;;;;;;;21.07;3.40;;;;;;;14.36;98.05;101144.03;4899769;29;20464;-87
2022/04/12 21:16:56;;;;;;;13.27;3.10;;;;;;;14.25;97.99;101133.63;4854113;29;20446;-85
2022/04/12 21:19:25;;;;;;;15.53;3.13;;;;;;;14.24;98.08;101140.16;4866996;29;20489;-87
2022/04/12 21:21:58;;;;;;;10.70;3.20;;;;;;;14.05;98.04;101129.97;4852033;29;20476;-86
2022/04/12 21:24:32;;;;;;;15.60;3.20;;;;;;;14.12;98.46;101145.44;4882125;29;20442;-87
2022/04/12 21:27:02;;;;;;;16.80;3.10;;;;;;;14.06;98.91;101148.16;4882133;29;20437;-90
2022/04/12 21:29:34;;;;;;;20.33;3.80;;;;;;;14.08;99.15;101155.16;4882178;29;20446;-86
2022/04/12 21:32:02;;;;;;;19.30;3.90;;;;;;;14.05;98.91;101146.47;4884210;29;20449;-86
2022/04/12 21:34:30;;;;;;;19.37;3.73;;;;;;;13.94;99.18;101138.81;4884289;29;20435;-86
2022/04/12 21:37:06;;;;;;;11.87;3.43;;;;;;;13.97;99.02;101149.41;4899462;29;20425;-86
2022/04/12 21:39:37;;;;;;;17.73;4.73;;;;;;;13.90;99.34;101140.28;4868650;29;20591;-86
2022/04/12 21:42:15;;;;;;;10.53;2.73;;;;;;;13.98;99.50;101154.72;4884739;29;20459;-87
2022/04/12 21:44:46;;;;;;;11.67;3.17;;;;;;;13.96;100.00;101144.97;4916215;29;20436;-86
2022/04/12 21:47:15;;;;;;;15.60;4.43;;;;;;;13.94;99.99;101138.81;4872746;29;20430;-86
2022/04/12 21:49:45;;;;;;;17.00;6.07;;;;;;;13.98;100.00;101151.13;4898747;29;20473;-86
2022/04/12 21:52:21;;;;;;;18.30;5.40;;;;;;;13.97;100.00;101144.75;4863158;29;20434;-86
2022/04/12 21:54:50;;;;;;;27.43;6.10;;;;;;;13.98;99.94;101145.63;4897908;29;20960;-87
2022/04/12 21:57:19;;;;;;;22.17;6.20;;;;;;;13.93;100.00;101135.22;4866310;29;20458;-87
2022/04/12 21:59:49;;;;;;;29.63;6.10;;;;;;;14.01;100.00;101134.22;4850373;29;20481;-86
2022/04/12 22:02:19;;;;;;;18.00;4.37;;;;;;;14.09;100.00;101136.75;4881498;29;20557;-87
2022/04/12 22:05:06;;;;;;;17.23;4.93;;;;;;;14.11;100.00;101135.50;4881487;29;20465;-87
2022/04/12 22:07:34;;;;;;;17.00;4.50;;;;;;;14.13;100.00;101127.91;4884598;29;20452;-86
2022/04/12 22:10:07;;;;;;;16.63;4.63;;;;;;;14.21;100.00;101135.13;4866098;29;20449;-87
2022/04/12 22:12:51;;;;;;;20.13;4.13;;;;;;;14.27;99.84;101141.66;4881989;29;20452;-86
2022/04/12 22:15:21;;;;;;;21.40;3.10;;;;;;;14.27;99.82;101130.66;4897405;29;20473;-86
2022/04/12 22:17:52;;;;;;;20.80;4.33;;;;;;;14.33;99.97;101147.19;4912250;29;20450;-86
2022/04/12 22:20:29;;;;;;;16.20;3.47;;;;;;;14.37;99.78;101145.72;4896559;29;20485;-86
2022/04/12 22:22:57;;;;;;;18.67;3.10;;;;;;;14.37;99.20;101150.38;4877920;29;20486;-86
2022/04/12 22:25:29;;;;;;;18.13;3.43;;;;;;;14.29;99.10;101151.41;4894215;29;20449;-86
2022/04/12 22:28:04;;;;;;;11.93;2.77;;;;;;;14.21;98.88;101151.59;4874130;29;20478;-86
2022/04/12 22:30:39;;;;;;;15.47;3.53;;;;;;;14.05;98.71;101158.31;4878220;29;20453;-86
2022/04/12 22:33:09;;;;;;;16.90;2.83;;;;;;;13.97;99.42;101160.41;4846363;29;20490;-86
2022/04/12 22:35:45;;;;;;;18.50;4.13;;;;;;;13.87;99.34;101165.41;4878578;29;20435;-87
2022/04/12 22:38:14;;;;;;;12.03;3.40;;;;;;;13.77;99.95;101166.66;4862970;29;20450;-86
2022/04/12 22:40:50;;;;;;;14.17;2.90;;;;;;;13.74;100.00;101172.56;4865323;29;20442;-86
2022/04/12 22:43:19;;;;;;;19.80;3.60;;;;;;;13.67;100.00;101166.19;4881518;29;20821;-86
2022/04/12 22:45:49;;;;;;;16.00;3.03;;;;;;;13.67;100.00;101171.69;4883143;29;20490;-86
2022/04/12 22:48:19;;;;;;;18.53;4.17;;;;;;;13.61;100.00;101172.50;4881801;29;20450;-86
2022/04/12 22:50:47;;;;;;;15.07;2.90;;;;;;;13.58;100.00;101167.41;4865947;29;20446;-86
2022/04/12 22:53:22;;;;;;;13.10;3.00;;;;;;;13.54;100.00;101171.63;4866380;29;20458;-86
2022/04/12 22:55:52;;;;;;;11.90;3.40;;;;;;;13.57;100.00;101186.84;4850958;29;20451;-86
2022/04/12 22:58:29;;;;;;;16.93;3.17;;;;;;;13.55;100.00;101177.97;4865528;29;20442;-86
2022/04/12 23:01:00;;;;;;;12.77;2.83;;;;;;;13.52;100.00;101184.69;4865816;29;20444;-86
2022/04/12 23:03:31;;;;;;;16.23;3.07;;;;;;;13.46;100.00;101182.78;4872648;29;20453;-86
2022/04/12 23:06:04;;;;;;;16.20;3.33;;;;;;;13.47;100.00;101181.69;4885093;29;20537;-88
2022/04/12 23:08:34;;;;;;;19.23;3.37;;;;;;;13.45;100.00;101186.56;4865880;29;20446;-87
2022/04/12 23:11:12;;;;;;;11.80;3.63;;;;;;;13.37;100.00;101176.59;4881147;29;20454;-86
2022/04/12 23:13:52;;;;;;;20.20;3.33;;;;;;;13.43;100.00;101180.44;4871669;29;20497;-86
2022/04/12 23:16:22;;;;;;;9.40;2.17;;;;;;;13.39;100.00;101179.13;4881556;29;20446;-86
2022/04/12 23:18:51;;;;;;;12.77;3.30;;;;;;;13.33;100.00;101180.78;4865988;29;20561;-86
2022/04/12 23:21:19;;;;;;;13.90;2.87;;;;;;;13.29;100.00;101181.38;4876119;29;20451;-86
2022/04/12 23:23:54;;;;;;;11.50;2.60;;;;;;;13.23;100.00;101179.47;4868938;29;20501;-86
2022/04/12 23:26:24;;;;;;;7.70;2.23;;;;;;;13.22;100.00;101175.00;4884112;29;20529;-87
2022/04/12 23:28:52;;;;;;;11.03;3.43;;;;;;;13.17;100.00;101183.84;4884255;29;20477;-86
2022/04/12 23:31:22;;;;;;;15.50;2.70;;;;;;;13.12;100.00;101178.91;4883881;29;20478;-86
2022/04/12 23:33:57;;;;;;;16.77;2.80;;;;;;;13.00;100.00;101168.69;4869492;29;20449;-86
2022/04/12 23:36:27;;;;;;;16.10;1.97;;;;;;;13.04;100.00;101181.81;4850891;29;20929;-86
2022/04/12 23:38:55;;;;;;;10.97;3.33;;;;;;;12.94;100.00;101180.47;4850490;29;20542;-86
2022/04/12 23:41:30;;;;;;;14.23;2.57;;;;;;;12.87;100.00;101187.81;4887437;29;20446;-86
2022/04/12 23:43:59;;;;;;;15.90;3.33;;;;;;;12.84;100.00;101191.78;4853646;29;20445;-88
2022/04/12 23:46:33;;;;;;;11.47;2.57;;;;;;;12.80;100.00;101195.97;4853217;29;20442;-86
2022/04/12 23:49:01;;;;;;;12.70;3.17;;;;;;;12.73;100.00;101181.31;4883590;29;20488;-88
2022/04/12 23:51:29;;;;;;;22.83;3.17;;;;;;;12.75;100.00;101195.69;4901964;29;20450;-88
2022/04/12 23:53:57;;;;;;;8.90;1.97;;;;;;;12.72;100.00;101193.34;4852845;29;20456;-88
2022/04/12 23:56:25;;;;;;;16.63;2.70;;;;;;;12.65;100.00;101186.97;4899996;29;20522;-88
2022/04/12 23:59:03;;;;;;;15.30;2.60;;;;;;;12.65;100.00;101189.72;4868668;29;20980;-88
